EFTUEFIV

Guest
Details From EFTU - Turku
To EFIV - Ivalo
Flight Number -
Tags Generated
Created
Modified
Stats Distance 504 nm / 934 km
Max Altitude 0 ft / 0 m
Waypoints 4
Social Downloads 2
Likes 0
Share VATSIM

Download

Looking for another format? Having issues loading an existing format? Contact us
Advertisement - Login to hide

Notes

Generated

Route

EFTU BIGNU KNS EFIV

ID Type Via Altitude Latitude Longitude Leg Dist Tot Dist Heading (true) Name
O EFTU APT - 0 ft / 0 m 60.51311˚ 22.24015˚ - 0 nm - -
BIGNU FIX - 0 ft / 0 m 64.88528˚ 24.51472˚ 269 nm 269 nm 12° / 14° -
KNS VOR - 0 ft / 0 m 68.45400˚ 27.45151˚ 225 nm 495 nm 17° / 19° KAUNIS VOR-DME
O EFIV APT - 0 ft / 0 m 68.60610˚ 27.42331˚ 9 nm 504 nm 356° / 356° Ivalo

Altitude Profile

Advertisement - Login to hide

Weather


0- 5 10 15 20 25 30 35+ Temperature / ° C

Clouds and Precipitation
Forecast for 2017-12-16 06:00 UTC. Updated 30 minutes ago

Ground ~20,000 ft ~40,000 ft Winds

EFTU

Details ICAO EFTU (TKU)
Name Turku
Region Finland
Timezone Europe/Helsinki (UTC+2.0)
Stats Elevation 161 ft / 49 m (AMSL)
Location 60.514115° 22.262812°
Runways 1
Magnetic Variation 7.975° E

METAR

EFTU 160120Z AUTO 13005KT 9999 -RA OVC004 01/01 Q0991

Decode

TAF

TAF EFTU 152335Z 1600/1700 13007KT 9999 -RASN BKN006 TEMPO 1600/1608 6000 BKN004 BKN030CB BECMG 1608/1610 BKN015 BECMG 1616/1618 3000 BR PROB30 1618/1700 0800 FZFG VV002

Decode

Departure Runways

ID Width Length Bearing (true) Bearing (mag) Surface Threshold Offset Overrun Length
08 197 ft / 60 m 8,175 ft / 2,492 m 84.82° 76.85° Asphalt 0 ft / 0 m 0 ft / 0 m
26 197 ft / 60 m 8,175 ft / 2,492 m 264.86° 256.89° Asphalt 0 ft / 0 m 0 ft / 0 m

EFIV

Details ICAO EFIV (IVL)
Name Ivalo
Region Finland
Timezone Europe/Helsinki (UTC+2.0)
Stats Elevation 481 ft / 147 m (AMSL)
Location 68.606615° 27.419231°
Runways 2
Magnetic Variation 13.128° E

METAR

EFIV 160120Z AUTO 23002KT 9999 BKN044 BKN101 M09/M10 Q0997

Decode

TAF

Not found

Destination Runways

ID Width Length Bearing (true) Bearing (mag) Surface Threshold Offset Overrun Length
04 148 ft / 45 m 8,173 ft / 2,491 m 46.96° 33.83° Asphalt 0 ft / 0 m 721 ft / 220 m
08 148 ft / 45 m 2,616 ft / 797 m 92.19° 79.06° Asphalt 500 ft / 152 m 0 ft / 0 m
22 148 ft / 45 m 8,173 ft / 2,491 m 227.01° 213.88° Asphalt 0 ft / 0 m 209 ft / 64 m
26 148 ft / 45 m 2,616 ft / 797 m 272.21° 259.08° Asphalt 500 ft / 152 m 0 ft / 0 m

Approach Navaids

Runway Type Ident Frequency Range Bearing (true) Bearing (mag) Slope Elevation
22 Localiser IV 109.90 MHz 18 nm / 33 km 226.96° 213.83° - 515 ft / 157 m (AMSL)
22 Glidescope IV 109.90 MHz 10 nm / 19 km 226.99° 213.86° 3.00° 481 ft / 147 m (AMSL)